Time;durP1;ratioP1;P1;durP2;ratioP2;P2;SDS_P1;SDS_P2;PMS_P1;PMS_P2;Temp;Humidity;BMP_temperature;BMP_pressure;BME280_temperature;BME280_humidity;BME280_pressure;Samples;Min_cycle;Max_cycle;Signal;HPM_P1;HPM_P2
2023/12/19 00:01:00;;;;;;;1.52;1.40;;;;;;;;;;6001170;29;20303;-69
2023/12/19 00:04:06;;;;;;;1.70;1.20;;;;;;;;;;6001018;29;20335;-69
2023/12/19 00:07:10;;;;;;;1.85;1.20;;;;;;;;;;6015859;29;20307;-69
2023/12/19 00:10:14;;;;;;;1.20;1.20;;;;;;;;;;6003179;29;20537;-70
2023/12/19 00:13:19;;;;;;;1.65;1.35;;;;;;;;;;6022593;29;20483;-69
2023/12/19 00:16:23;;;;;;;1.60;1.60;;;;;;;;;;6023734;29;20548;-69
2023/12/19 00:19:27;;;;;;;1.30;1.17;;;;;;;;;;6023118;29;20297;-69
2023/12/19 00:22:32;;;;;;;1.30;1.30;;;;;;;;;;6023609;29;20298;-69
2023/12/19 00:25:36;;;;;;;1.13;1.13;;;;;;;;;;6023360;29;20295;-69
2023/12/19 00:28:41;;;;;;;1.00;1.00;;;;;;;;;;6022887;29;20297;-69
2023/12/19 00:31:45;;;;;;;1.20;1.20;;;;;;;;;;6023288;29;20302;-69
2023/12/19 00:34:49;;;;;;;4.22;1.00;;;;;;;;;;6000350;29;20604;-69
2023/12/19 00:37:53;;;;;;;1.02;1.02;;;;;;;;;;6008506;29;20294;-68
2023/12/19 00:40:57;;;;;;;1.08;1.05;;;;;;;;;;6021818;29;20299;-70
2023/12/19 00:44:04;;;;;;;0.88;0.88;;;;;;;;;;6022531;29;20298;-69
2023/12/19 00:47:09;;;;;;;2.35;0.98;;;;;;;;;;6022720;29;20489;-70
2023/12/19 00:50:15;;;;;;;1.00;1.00;;;;;;;;;;6023024;29;20294;-69
2023/12/19 00:53:19;;;;;;;0.93;0.93;;;;;;;;;;6022760;29;20306;-69
2023/12/19 00:56:23;;;;;;;0.90;0.90;;;;;;;;;;6022705;29;20298;-69
2023/12/19 00:59:30;;;;;;;1.10;1.10;;;;;;;;;;6022107;29;20294;-69
2023/12/19 01:02:33;;;;;;;1.00;1.00;;;;;;;;;;6022686;29;20419;-69
2023/12/19 01:05:37;;;;;;;0.88;0.88;;;;;;;;;;6022246;29;20294;-69
2023/12/19 01:08:41;;;;;;;2.13;0.93;;;;;;;;;;6021694;29;20297;-69
2023/12/19 01:11:45;;;;;;;0.85;0.85;;;;;;;;;;6008921;29;20315;-70
2023/12/19 01:14:50;;;;;;;0.90;0.90;;;;;;;;;;5999717;29;20303;-70
2023/12/19 01:17:54;;;;;;;1.17;1.00;;;;;;;;;;6006342;29;20298;-70
2023/12/19 01:20:59;;;;;;;1.27;0.93;;;;;;;;;;6022216;29;20302;-69
2023/12/19 01:24:03;;;;;;;0.93;0.90;;;;;;;;;;6021584;29;20310;-69
2023/12/19 01:27:07;;;;;;;1.05;1.05;;;;;;;;;;6022391;29;20547;-69
2023/12/19 01:30:13;;;;;;;1.00;1.00;;;;;;;;;;6007551;29;20483;-69
2023/12/19 01:33:17;;;;;;;0.90;0.90;;;;;;;;;;6022155;29;20302;-69
2023/12/19 01:36:21;;;;;;;0.90;0.90;;;;;;;;;;6021953;29;20298;-69
2023/12/19 01:39:26;;;;;;;0.90;0.90;;;;;;;;;;6021347;29;20314;-69
2023/12/19 01:42:30;;;;;;;0.90;0.90;;;;;;;;;;6021940;29;20295;-69
2023/12/19 01:45:35;;;;;;;0.90;0.90;;;;;;;;;;6021587;29;20306;-69
2023/12/19 01:48:39;;;;;;;0.80;0.80;;;;;;;;;;6021348;29;20298;-69
2023/12/19 01:51:43;;;;;;;0.80;0.80;;;;;;;;;;6021901;29;20293;-70
2023/12/19 01:54:47;;;;;;;0.80;0.80;;;;;;;;;;6021182;29;20394;-69
2023/12/19 01:57:51;;;;;;;0.80;0.80;;;;;;;;;;6021618;29;20443;-69
2023/12/19 02:00:57;;;;;;;0.70;0.70;;;;;;;;;;6020264;29;20303;-70
2023/12/19 02:04:02;;;;;;;1.10;0.70;;;;;;;;;;6020983;29;20317;-69
2023/12/19 02:10:41;;;;;;;0.98;0.98;;;;;;;;;;6019247;24;20298;-69
2023/12/19 02:18:20;;;;;;;0.70;0.70;;;;;;;;;;6091753;24;20241;-70
2023/12/19 02:21:24;;;;;;;0.60;0.60;;;;;;;;;;6050414;29;20315;-69
2023/12/19 02:24:29;;;;;;;0.60;0.60;;;;;;;;;;6066809;29;20304;-69
2023/12/19 02:27:34;;;;;;;0.50;0.50;;;;;;;;;;6058032;29;20614;-69
2023/12/19 02:30:38;;;;;;;0.70;0.70;;;;;;;;;;6047220;29;20297;-69
2023/12/19 02:33:46;;;;;;;0.57;0.57;;;;;;;;;;6063198;29;20298;-69
2023/12/19 02:36:50;;;;;;;0.50;0.50;;;;;;;;;;6044427;29;20314;-69
2023/12/19 02:39:56;;;;;;;0.70;0.70;;;;;;;;;;6043063;29;20702;-69
2023/12/19 02:43:01;;;;;;;1.13;0.50;;;;;;;;;;6042890;29;20321;-70
2023/12/19 02:46:06;;;;;;;0.40;0.40;;;;;;;;;;6043709;29;20301;-70
2023/12/19 02:49:10;;;;;;;0.40;0.40;;;;;;;;;;6042025;29;20321;-69
2023/12/19 02:52:14;;;;;;;0.50;0.50;;;;;;;;;;6058077;29;20296;-69
2023/12/19 02:55:19;;;;;;;0.45;0.45;;;;;;;;;;6065663;29;20297;-70
2023/12/19 02:58:24;;;;;;;1.10;0.43;;;;;;;;;;6042870;29;20476;-69
2023/12/19 03:01:27;;;;;;;0.50;0.50;;;;;;;;;;6043416;29;20302;-69
2023/12/19 03:04:32;;;;;;;0.47;0.47;;;;;;;;;;6047355;29;20612;-69
2023/12/19 03:07:36;;;;;;;0.50;0.50;;;;;;;;;;6047834;29;20301;-72
2023/12/19 03:10:41;;;;;;;2.35;0.50;;;;;;;;;;6047994;29;20293;-69
2023/12/19 03:13:46;;;;;;;0.50;0.50;;;;;;;;;;6047670;29;20325;-69
2023/12/19 03:16:50;;;;;;;0.45;0.45;;;;;;;;;;6053617;29;20288;-70
2023/12/19 03:19:53;;;;;;;0.30;0.30;;;;;;;;;;6069737;29;20455;-70
2023/12/19 03:22:57;;;;;;;0.38;0.38;;;;;;;;;;6070636;29;20388;-70
2023/12/19 03:26:03;;;;;;;0.65;0.40;;;;;;;;;;6059211;29;20297;-70
2023/12/19 03:29:07;;;;;;;0.40;0.40;;;;;;;;;;6046879;29;20297;-71
2023/12/19 03:32:11;;;;;;;0.40;0.40;;;;;;;;;;6048108;29;20305;-69
2023/12/19 03:35:15;;;;;;;0.50;0.50;;;;;;;;;;6046667;29;20302;-69
2023/12/19 03:38:18;;;;;;;0.40;0.40;;;;;;;;;;6047588;29;20297;-68
2023/12/19 03:41:25;;;;;;;0.43;0.43;;;;;;;;;;6045934;29;20448;-69
2023/12/19 03:44:28;;;;;;;0.50;0.50;;;;;;;;;;6047325;29;20488;-69
2023/12/19 03:47:32;;;;;;;0.52;0.52;;;;;;;;;;6046428;29;20294;-69
2023/12/19 03:50:36;;;;;;;0.50;0.50;;;;;;;;;;6047267;29;20297;-69
2023/12/19 03:53:40;;;;;;;0.52;0.52;;;;;;;;;;6046117;29;20297;-69
2023/12/19 03:56:45;;;;;;;0.60;0.60;;;;;;;;;;6047236;29;20309;-70
2023/12/19 03:59:49;;;;;;;0.52;0.52;;;;;;;;;;6046425;29;20301;-69
2023/12/19 04:02:53;;;;;;;0.73;0.50;;;;;;;;;;6051991;29;20289;-69
2023/12/19 04:05:57;;;;;;;0.65;0.65;;;;;;;;;;6051583;29;20301;-70
2023/12/19 04:09:00;;;;;;;0.70;0.70;;;;;;;;;;6068229;29;20300;-70
2023/12/19 04:12:07;;;;;;;0.50;0.50;;;;;;;;;;6052494;29;20305;-69
2023/12/19 04:15:11;;;;;;;0.70;0.70;;;;;;;;;;6046314;29;20297;-69
2023/12/19 04:18:15;;;;;;;0.75;0.75;;;;;;;;;;6062096;29;20313;-69
2023/12/19 04:21:19;;;;;;;0.65;0.65;;;;;;;;;;6048971;29;20309;-68
2023/12/19 04:24:25;;;;;;;1.25;0.70;;;;;;;;;;6069301;29;20300;-68
2023/12/19 04:27:30;;;;;;;1.05;0.77;;;;;;;;;;6069202;29;20479;-69
2023/12/19 04:30:34;;;;;;;0.88;0.88;;;;;;;;;;6068986;29;20297;-69
2023/12/19 04:33:38;;;;;;;0.70;0.70;;;;;;;;;;6068956;29;20478;-70
2023/12/19 04:36:42;;;;;;;0.75;0.75;;;;;;;;;;6060271;29;20293;-70
2023/12/19 04:39:46;;;;;;;0.73;0.73;;;;;;;;;;6045936;29;20527;-70
2023/12/19 04:42:51;;;;;;;0.85;0.85;;;;;;;;;;6046385;29;20313;-69
2023/12/19 04:45:55;;;;;;;0.85;0.85;;;;;;;;;;6045506;29;20301;-69
2023/12/19 04:48:59;;;;;;;0.95;0.70;;;;;;;;;;6045504;29;20302;-71
2023/12/19 04:52:04;;;;;;;3.30;0.80;;;;;;;;;;6046410;29;20290;-70
2023/12/19 04:55:09;;;;;;;1.67;0.85;;;;;;;;;;6045903;29;20301;-71
2023/12/19 04:58:15;;;;;;;1.15;0.82;;;;;;;;;;6045850;29;20289;-69
2023/12/19 05:01:18;;;;;;;0.88;0.88;;;;;;;;;;6045861;29;20310;-70
2023/12/19 05:04:23;;;;;;;1.60;0.80;;;;;;;;;;6045490;29;20306;-69
2023/12/19 05:07:27;;;;;;;1.00;1.00;;;;;;;;;;6045820;29;20301;-70
2023/12/19 05:10:32;;;;;;;1.00;0.90;;;;;;;;;;6050750;29;20297;-69
2023/12/19 05:13:37;;;;;;;0.88;0.88;;;;;;;;;;6067882;29;20297;-70
2023/12/19 05:16:41;;;;;;;1.75;1.00;;;;;;;;;;6066374;29;20628;-70
2023/12/19 05:19:45;;;;;;;0.90;0.90;;;;;;;;;;6068161;29;20292;-70
2023/12/19 05:22:56;;;;;;;1.83;0.80;;;;;;;;;;6068027;29;20293;-71
2023/12/19 05:26:00;;;;;;;2.85;0.95;;;;;;;;;;6067690;29;20304;-69
2023/12/19 05:29:05;;;;;;;0.90;0.80;;;;;;;;;;6067536;29;20609;-70
2023/12/19 05:32:10;;;;;;;0.88;0.88;;;;;;;;;;6068020;29;20293;-69
2023/12/19 05:35:14;;;;;;;0.60;0.60;;;;;;;;;;6067237;29;20305;-70
2023/12/19 05:38:18;;;;;;;2.08;0.88;;;;;;;;;;6067471;29;20296;-69
2023/12/19 05:41:22;;;;;;;1.10;0.95;;;;;;;;;;6066853;29;20289;-69
2023/12/19 05:44:27;;;;;;;1.95;0.90;;;;;;;;;;6066464;29;20345;-69
2023/12/19 05:47:33;;;;;;;0.77;0.77;;;;;;;;;;6067391;29;20297;-69
2023/12/19 05:50:37;;;;;;;0.65;0.65;;;;;;;;;;6067504;29;20301;-68
2023/12/19 05:53:41;;;;;;;2.03;0.95;;;;;;;;;;6067261;29;20289;-70
2023/12/19 05:56:45;;;;;;;2.92;1.00;;;;;;;;;;6067852;29;20572;-69
2023/12/19 05:59:50;;;;;;;0.98;0.90;;;;;;;;;;6067214;29;20380;-70
2023/12/19 06:02:54;;;;;;;1.10;0.90;;;;;;;;;;6067307;29;20466;-69
2023/12/19 06:05:58;;;;;;;1.90;0.98;;;;;;;;;;6067312;29;20297;-69
2023/12/19 06:09:02;;;;;;;0.80;0.80;;;;;;;;;;6067022;29;20296;-69
2023/12/19 06:12:07;;;;;;;1.02;0.77;;;;;;;;;;6048868;29;20297;-69
2023/12/19 06:15:14;;;;;;;2.50;0.95;;;;;;;;;;6044138;29;20302;-70
2023/12/19 06:18:18;;;;;;;0.70;0.70;;;;;;;;;;6060460;29;20304;-70
2023/12/19 06:21:22;;;;;;;0.93;0.93;;;;;;;;;;6067261;29;20296;-71
2023/12/19 06:24:26;;;;;;;3.03;0.95;;;;;;;;;;6065861;29;20305;-71
2023/12/19 06:27:30;;;;;;;1.90;1.00;;;;;;;;;;6067255;29;20400;-70
2023/12/19 06:30:36;;;;;;;0.75;0.70;;;;;;;;;;6067005;29;20305;-70
2023/12/19 06:33:43;;;;;;;0.98;0.88;;;;;;;;;;6066616;29;20300;-71
2023/12/19 06:36:47;;;;;;;3.22;1.08;;;;;;;;;;6067783;29;20301;-71
2023/12/19 06:39:51;;;;;;;2.92;1.10;;;;;;;;;;6048358;29;20302;-69
2023/12/19 06:42:55;;;;;;;1.40;1.20;;;;;;;;;;6048819;29;20289;-70
2023/12/19 06:46:00;;;;;;;2.95;1.52;;;;;;;;;;6048255;29;20297;-69
2023/12/19 06:49:05;;;;;;;2.40;0.90;;;;;;;;;;6048171;29;20304;-70
2023/12/19 06:52:09;;;;;;;1.30;1.00;;;;;;;;;;6048620;29;20293;-70
2023/12/19 06:55:13;;;;;;;1.17;0.70;;;;;;;;;;6046578;29;20296;-70
2023/12/19 06:58:16;;;;;;;0.75;0.75;;;;;;;;;;6048138;29;20309;-69
2023/12/19 07:01:22;;;;;;;0.73;0.73;;;;;;;;;;6047165;29;20613;-70
2023/12/19 07:04:26;;;;;;;2.83;0.93;;;;;;;;;;6047599;29;20297;-70
2023/12/19 07:07:30;;;;;;;1.13;1.00;;;;;;;;;;6048354;29;20483;-70
2023/12/19 07:10:34;;;;;;;1.20;0.80;;;;;;;;;;6054484;29;20301;-69
2023/12/19 07:13:38;;;;;;;1.00;1.00;;;;;;;;;;6070214;29;20288;-69
2023/12/19 07:16:43;;;;;;;0.70;0.70;;;;;;;;;;6070528;29;20300;-70
2023/12/19 07:19:47;;;;;;;1.15;0.80;;;;;;;;;;6070185;29;20309;-71
2023/12/19 07:22:52;;;;;;;0.77;0.77;;;;;;;;;;6070549;29;20285;-71
2023/12/19 07:25:56;;;;;;;1.30;0.90;;;;;;;;;;6070378;29;20293;-70
2023/12/19 07:29:02;;;;;;;2.67;1.00;;;;;;;;;;6069064;29;20329;-71
2023/12/19 07:32:08;;;;;;;0.80;0.80;;;;;;;;;;6070731;29;20573;-68
2023/12/19 07:35:14;;;;;;;0.80;0.80;;;;;;;;;;6069644;29;20314;-69
2023/12/19 07:38:17;;;;;;;1.00;0.90;;;;;;;;;;6060536;29;20306;-69
2023/12/19 07:41:26;;;;;;;0.85;0.85;;;;;;;;;;6047145;29;20297;-69
2023/12/19 07:44:30;;;;;;;0.70;0.70;;;;;;;;;;6046854;29;20334;-68
2023/12/19 07:47:35;;;;;;;1.15;0.82;;;;;;;;;;6045584;29;20628;-69
2023/12/19 07:50:39;;;;;;;0.98;0.70;;;;;;;;;;6046815;29;20293;-69
2023/12/19 07:53:43;;;;;;;0.80;0.80;;;;;;;;;;6046459;29;20305;-69
2023/12/19 07:56:47;;;;;;;1.60;0.95;;;;;;;;;;6047136;29;20297;-71
2023/12/19 07:59:51;;;;;;;2.33;0.98;;;;;;;;;;6046685;29;20294;-69
2023/12/19 08:02:56;;;;;;;2.47;0.90;;;;;;;;;;6046926;29;20289;-68
2023/12/19 08:06:03;;;;;;;0.82;0.80;;;;;;;;;;6046656;29;20294;-68
2023/12/19 08:09:10;;;;;;;3.25;0.80;;;;;;;;;;6046623;29;20322;-69
2023/12/19 08:12:14;;;;;;;1.85;0.80;;;;;;;;;;6066947;29;20301;-69
2023/12/19 08:15:17;;;;;;;1.40;0.90;;;;;;;;;;6068817;29;20332;-69
2023/12/19 08:18:23;;;;;;;1.85;1.00;;;;;;;;;;6068497;29;20304;-68
2023/12/19 08:21:27;;;;;;;1.02;1.02;;;;;;;;;;6069772;29;20384;-68
2023/12/19 08:24:31;;;;;;;1.50;1.38;;;;;;;;;;6067520;29;20471;-68
2023/12/19 08:27:35;;;;;;;1.00;1.00;;;;;;;;;;6069514;29;20297;-69
2023/12/19 08:30:40;;;;;;;1.48;0.90;;;;;;;;;;6045780;29;20305;-68
2023/12/19 08:33:46;;;;;;;3.70;1.00;;;;;;;;;;6046041;29;20298;-69
2023/12/19 08:36:51;;;;;;;0.80;0.80;;;;;;;;;;6046350;29;20298;-68
2023/12/19 08:39:57;;;;;;;0.80;0.80;;;;;;;;;;6045563;29;20302;-69
2023/12/19 08:43:01;;;;;;;0.60;0.60;;;;;;;;;;6045735;29;20309;-69
2023/12/19 08:46:05;;;;;;;0.95;0.95;;;;;;;;;;6045880;29;20302;-68
2023/12/19 08:49:10;;;;;;;1.25;0.80;;;;;;;;;;6045639;29;20301;-68
2023/12/19 08:52:15;;;;;;;1.85;1.20;;;;;;;;;;6046316;29;20298;-69
2023/12/19 08:55:20;;;;;;;1.08;0.90;;;;;;;;;;6045478;29;20309;-68
2023/12/19 08:58:24;;;;;;;0.80;0.80;;;;;;;;;;6045491;29;20563;-69
2023/12/19 09:01:28;;;;;;;1.80;1.00;;;;;;;;;;6044729;29;20301;-68
2023/12/19 09:04:33;;;;;;;1.38;0.85;;;;;;;;;;6045488;29;20302;-69
2023/12/19 09:07:37;;;;;;;2.72;0.90;;;;;;;;;;6045632;29;20306;-69
2023/12/19 09:10:41;;;;;;;0.82;0.82;;;;;;;;;;6053088;29;20296;-70
2023/12/19 09:13:45;;;;;;;3.70;1.25;;;;;;;;;;6067908;29;20494;-70
2023/12/19 09:16:50;;;;;;;0.65;0.65;;;;;;;;;;6069039;29;20332;-70
2023/12/19 09:19:55;;;;;;;1.00;0.85;;;;;;;;;;6067290;29;20304;-70
2023/12/19 09:23:00;;;;;;;1.55;0.82;;;;;;;;;;6065902;29;20605;-70
2023/12/19 09:26:04;;;;;;;1.23;0.75;;;;;;;;;;6068461;29;20301;-70
2023/12/19 09:29:08;;;;;;;1.05;0.70;;;;;;;;;;6067502;29;20524;-70
2023/12/19 09:32:15;;;;;;;0.73;0.73;;;;;;;;;;6068347;29;20300;-71
2023/12/19 09:35:22;;;;;;;0.75;0.73;;;;;;;;;;6067658;29;20308;-70
2023/12/19 09:38:26;;;;;;;2.35;1.00;;;;;;;;;;6067615;29;20297;-70
2023/12/19 09:41:30;;;;;;;0.60;0.60;;;;;;;;;;6066738;29;20483;-70
2023/12/19 09:44:34;;;;;;;0.85;0.85;;;;;;;;;;6067518;29;20309;-70
2023/12/19 09:47:41;;;;;;;0.85;0.80;;;;;;;;;;6068157;29;20296;-70
2023/12/19 09:50:48;;;;;;;1.30;0.80;;;;;;;;;;6067707;29;20289;-70
2023/12/19 09:53:53;;;;;;;2.88;0.90;;;;;;;;;;6067360;29;20589;-69
2023/12/19 09:56:58;;;;;;;3.63;1.00;;;;;;;;;;6067894;29;20557;-69
2023/12/19 10:00:06;;;;;;;0.93;0.80;;;;;;;;;;6067232;29;20500;-68
2023/12/19 10:03:11;;;;;;;4.60;1.02;;;;;;;;;;6065085;29;20301;-70
2023/12/19 10:06:17;;;;;;;0.77;0.77;;;;;;;;;;6045041;29;20305;-70
2023/12/19 10:09:21;;;;;;;2.70;0.88;;;;;;;;;;6044601;29;20317;-71
2023/12/19 10:12:27;;;;;;;0.73;0.70;;;;;;;;;;6065585;29;20309;-70
2023/12/19 10:15:40;;;;;;;2.40;0.80;;;;;;;;;;6066860;29;20297;-70
2023/12/19 10:18:45;;;;;;;0.75;0.75;;;;;;;;;;6066695;29;20296;-70
2023/12/19 10:22:05;;;;;;;3.13;0.80;;;;;;;;;;6067529;29;20288;-70
2023/12/19 10:25:09;;;;;;;0.93;0.93;;;;;;;;;;6066595;29;20297;-70
2023/12/19 10:28:13;;;;;;;0.85;0.80;;;;;;;;;;6067024;29;20305;-70
2023/12/19 10:31:18;;;;;;;1.52;0.80;;;;;;;;;;6067474;29;20300;-70
2023/12/19 10:34:23;;;;;;;1.13;0.80;;;;;;;;;;6066881;29;20297;-69
2023/12/19 10:37:29;;;;;;;1.00;1.00;;;;;;;;;;6067407;29;20368;-69
2023/12/19 10:40:46;;;;;;;0.95;0.77;;;;;;;;;;6066801;29;20297;-70
2023/12/19 10:43:51;;;;;;;2.60;1.10;;;;;;;;;;6066659;29;20452;-70
2023/12/19 10:46:55;;;;;;;1.30;0.98;;;;;;;;;;6067057;29;20289;-69
2023/12/19 10:49:59;;;;;;;3.13;0.95;;;;;;;;;;6065826;29;20296;-70
2023/12/19 10:53:08;;;;;;;0.88;0.88;;;;;;;;;;6066470;29;20298;-70
2023/12/19 10:56:12;;;;;;;2.67;0.80;;;;;;;;;;6067136;29;20308;-71
2023/12/19 10:59:28;;;;;;;0.80;0.80;;;;;;;;;;6066405;29;20320;-69
2023/12/19 11:02:37;;;;;;;1.95;0.93;;;;;;;;;;6067329;29;20298;-71
2023/12/19 11:05:43;;;;;;;1.40;1.15;;;;;;;;;;6066315;29;20317;-69
2023/12/19 11:08:49;;;;;;;1.42;0.90;;;;;;;;;;6066435;29;20309;-71
2023/12/19 11:11:53;;;;;;;5.25;1.00;;;;;;;;;;6049459;29;20302;-70
2023/12/19 11:14:57;;;;;;;1.02;1.02;;;;;;;;;;6043588;29;20301;-69
2023/12/19 11:18:05;;;;;;;8.40;1.00;;;;;;;;;;6057602;29;20458;-70
2023/12/19 11:21:14;;;;;;;3.40;0.90;;;;;;;;;;6066705;29;20609;-70
2023/12/19 11:24:25;;;;;;;1.75;0.80;;;;;;;;;;6068857;29;20572;-71
2023/12/19 11:27:35;;;;;;;0.95;0.95;;;;;;;;;;6071376;29;20301;-70
2023/12/19 11:30:41;;;;;;;4.00;1.00;;;;;;;;;;6070664;29;20297;-70
2023/12/19 11:33:46;;;;;;;7.80;1.10;;;;;;;;;;6070387;29;20297;-70
2023/12/19 11:37:02;;;;;;;1.50;1.17;;;;;;;;;;6070826;29;20293;-69
2023/12/19 11:40:09;;;;;;;3.22;1.17;;;;;;;;;;6059897;29;20302;-68
2023/12/19 11:43:53;;;;;;;2.38;1.30;;;;;;;;;;6054184;29;20298;-69
2023/12/19 11:47:15;;;;;;;1.48;0.90;;;;;;;;;;6047249;29;20293;-69
2023/12/19 11:50:46;;;;;;;11.18;1.30;;;;;;;;;;6047494;29;20301;-71
2023/12/19 11:53:50;;;;;;;2.05;1.10;;;;;;;;;;6046854;29;20285;-69
2023/12/19 11:57:00;;;;;;;2.15;0.63;;;;;;;;;;6047433;29;20290;-69
2023/12/19 12:00:06;;;;;;;2.00;0.90;;;;;;;;;;6046739;29;20345;-69
2023/12/19 12:03:19;;;;;;;1.27;1.10;;;;;;;;;;6046806;29;20481;-70
2023/12/19 12:06:22;;;;;;;1.20;0.93;;;;;;;;;;6047455;29;20298;-69
2023/12/19 12:09:27;;;;;;;5.28;1.23;;;;;;;;;;6046679;29;20609;-70
2023/12/19 12:12:33;;;;;;;3.40;1.10;;;;;;;;;;6068974;29;20304;-70
2023/12/19 12:15:37;;;;;;;1.58;1.05;;;;;;;;;;6069656;29;20313;-70
2023/12/19 12:18:40;;;;;;;1.80;0.95;;;;;;;;;;6069326;29;20309;-70
2023/12/19 12:21:49;;;;;;;1.20;1.20;;;;;;;;;;6069756;29;20297;-70
2023/12/19 12:24:54;;;;;;;2.42;1.05;;;;;;;;;;6069430;29;20298;-70
2023/12/19 12:28:08;;;;;;;2.33;0.95;;;;;;;;;;6069890;29;20289;-70
2023/12/19 12:31:14;;;;;;;2.03;1.08;;;;;;;;;;6069136;29;20300;-71
2023/12/19 12:34:19;;;;;;;2.45;1.10;;;;;;;;;;6068537;29;20301;-71
2023/12/19 12:37:23;;;;;;;0.93;0.80;;;;;;;;;;6068127;29;20317;-70
2023/12/19 12:40:31;;;;;;;4.82;0.88;;;;;;;;;;6068838;29;20305;-70
2023/12/19 12:43:39;;;;;;;7.13;1.30;;;;;;;;;;6069408;29;20301;-71
2023/12/19 12:46:45;;;;;;;7.10;1.15;;;;;;;;;;6069565;29;20298;-70
2023/12/19 12:50:01;;;;;;;1.02;1.02;;;;;;;;;;6067285;29;20309;-70
2023/12/19 12:53:05;;;;;;;6.00;1.20;;;;;;;;;;6068460;29;20301;-71
2023/12/19 12:56:14;;;;;;;5.47;1.40;;;;;;;;;;6069018;29;20327;-70
2023/12/19 12:59:22;;;;;;;5.07;1.20;;;;;;;;;;6068958;29;20300;-70
2023/12/19 13:02:26;;;;;;;8.45;1.30;;;;;;;;;;6045990;29;20301;-71
2023/12/19 13:05:31;;;;;;;2.47;1.05;;;;;;;;;;6045298;29;20298;-70
2023/12/19 13:08:37;;;;;;;1.95;1.25;;;;;;;;;;6045283;29;20289;-70
2023/12/19 13:11:42;;;;;;;6.05;1.88;;;;;;;;;;6061009;29;20471;-70
2023/12/19 13:14:48;;;;;;;3.50;1.50;;;;;;;;;;6067873;29;20285;-70
2023/12/19 13:17:51;;;;;;;1.45;1.02;;;;;;;;;;6059210;29;20294;-70
2023/12/19 13:20:56;;;;;;;3.90;1.00;;;;;;;;;;6044753;29;20333;-70
2023/12/19 13:24:00;;;;;;;4.55;1.58;;;;;;;;;;6044890;29;20302;-69
2023/12/19 13:27:05;;;;;;;2.95;1.70;;;;;;;;;;6045612;29;20303;-69
2023/12/19 13:30:12;;;;;;;1.33;1.23;;;;;;;;;;6044959;29;20290;-70
2023/12/19 13:33:16;;;;;;;6.50;1.40;;;;;;;;;;6044566;29;20457;-69
2023/12/19 13:36:21;;;;;;;3.15;1.50;;;;;;;;;;6045260;29;20293;-70
2023/12/19 13:39:25;;;;;;;8.02;1.38;;;;;;;;;;6044768;29;20301;-70
2023/12/19 13:42:29;;;;;;;3.50;1.33;;;;;;;;;;6045143;29;20310;-73
2023/12/19 13:45:35;;;;;;;5.38;1.33;;;;;;;;;;6044126;29;20285;-68
2023/12/19 13:48:39;;;;;;;7.25;1.15;;;;;;;;;;6044610;29;20294;-70
2023/12/19 13:51:47;;;;;;;6.70;1.20;;;;;;;;;;6044820;29;20569;-70
2023/12/19 13:54:51;;;;;;;6.25;1.38;;;;;;;;;;6044133;29;20298;-71
2023/12/19 13:57:55;;;;;;;5.00;1.58;;;;;;;;;;6044755;29;20302;-70
2023/12/19 14:01:01;;;;;;;7.30;1.20;;;;;;;;;;6044308;29;20377;-71
2023/12/19 14:04:05;;;;;;;6.68;1.30;;;;;;;;;;6043821;29;20306;-71
2023/12/19 14:07:13;;;;;;;6.32;1.30;;;;;;;;;;6044387;29;20297;-71
2023/12/19 14:10:18;;;;;;;15.30;1.42;;;;;;;;;;6048560;29;20293;-70
2023/12/19 14:13:22;;;;;;;3.95;1.45;;;;;;;;;;6066189;29;20497;-70
2023/12/19 14:16:27;;;;;;;5.40;1.40;;;;;;;;;;6066807;29;20308;-70
2023/12/19 14:19:32;;;;;;;7.28;1.58;;;;;;;;;;6066670;29;20293;-70
2023/12/19 14:22:36;;;;;;;3.58;1.35;;;;;;;;;;6066935;29;20315;-70
2023/12/19 14:25:40;;;;;;;5.30;1.08;;;;;;;;;;6066693;29;20309;-69
2023/12/19 14:28:45;;;;;;;4.20;1.23;;;;;;;;;;6067147;29;20288;-71
2023/12/19 14:31:50;;;;;;;2.58;1.27;;;;;;;;;;6067330;29;20298;-71
2023/12/19 14:34:54;;;;;;;2.10;1.13;;;;;;;;;;6066913;29;20297;-71
2023/12/19 14:37:59;;;;;;;6.70;1.48;;;;;;;;;;6066120;29;20284;-72
2023/12/19 14:41:03;;;;;;;4.20;1.40;;;;;;;;;;6067094;29;20297;-71
2023/12/19 14:44:07;;;;;;;8.77;1.40;;;;;;;;;;6064196;29;20310;-71
2023/12/19 14:47:13;;;;;;;6.28;1.60;;;;;;;;;;6041869;29;20302;-71
2023/12/19 14:50:19;;;;;;;11.23;1.83;;;;;;;;;;6044318;29;20309;-70
2023/12/19 14:53:23;;;;;;;3.92;1.20;;;;;;;;;;6044066;29;20302;-70
2023/12/19 14:56:27;;;;;;;7.03;1.80;;;;;;;;;;6040579;29;20298;-70
2023/12/19 14:59:32;;;;;;;2.55;1.40;;;;;;;;;;6046480;29;20476;-71
2023/12/19 15:02:38;;;;;;;1.67;1.40;;;;;;;;;;6058110;29;20583;-69
2023/12/19 15:05:42;;;;;;;3.35;1.35;;;;;;;;;;6065006;29;20395;-69
2023/12/19 15:08:46;;;;;;;8.45;1.40;;;;;;;;;;6071694;29;20301;-70
2023/12/19 15:11:50;;;;;;;5.30;1.70;;;;;;;;;;6054650;29;20297;-71
2023/12/19 15:14:54;;;;;;;4.38;1.30;;;;;;;;;;6048041;29;20347;-71
2023/12/19 15:18:00;;;;;;;9.50;1.27;;;;;;;;;;6061281;29;20313;-73
2023/12/19 15:21:04;;;;;;;3.35;1.58;;;;;;;;;;6065457;29;20297;-70
2023/12/19 15:24:09;;;;;;;7.82;1.58;;;;;;;;;;6071671;29;20304;-70
2023/12/19 15:27:14;;;;;;;3.22;1.35;;;;;;;;;;6071462;29;20298;-70
2023/12/19 15:30:18;;;;;;;5.90;1.58;;;;;;;;;;6069720;29;20448;-70
2023/12/19 15:33:23;;;;;;;3.95;1.60;;;;;;;;;;6070126;29;20300;-70
2023/12/19 15:36:27;;;;;;;5.93;1.73;;;;;;;;;;6070694;29;20484;-70
2023/12/19 15:39:32;;;;;;;5.45;1.30;;;;;;;;;;6070376;29;20297;-70
2023/12/19 15:42:35;;;;;;;5.43;1.35;;;;;;;;;;6070426;29;20305;-70
2023/12/19 15:45:40;;;;;;;3.92;1.23;;;;;;;;;;6070190;29;20293;-70
2023/12/19 15:48:47;;;;;;;7.10;1.95;;;;;;;;;;6070104;29;20304;-72
2023/12/19 15:51:52;;;;;;;6.78;1.55;;;;;;;;;;6070079;29;20300;-72
2023/12/19 15:54:56;;;;;;;11.43;1.50;;;;;;;;;;6070238;29;20475;-71
2023/12/19 15:58:00;;;;;;;6.83;1.50;;;;;;;;;;6069785;29;20301;-71
2023/12/19 16:01:05;;;;;;;3.55;1.50;;;;;;;;;;6070375;29;20293;-71
2023/12/19 16:04:10;;;;;;;2.00;1.30;;;;;;;;;;6069629;29;20297;-71
2023/12/19 16:07:15;;;;;;;4.32;1.30;;;;;;;;;;6069818;29;20321;-72
2023/12/19 16:10:18;;;;;;;4.43;1.38;;;;;;;;;;6064629;29;20295;-70
2023/12/19 16:13:22;;;;;;;10.55;1.85;;;;;;;;;;6046533;29;20309;-70
2023/12/19 16:16:27;;;;;;;8.37;1.70;;;;;;;;;;6049707;29;20308;-70
2023/12/19 16:19:33;;;;;;;4.57;1.37;;;;;;;;;;6069757;29;20297;-70
2023/12/19 16:22:37;;;;;;;6.53;1.83;;;;;;;;;;6069631;29;20313;-71
2023/12/19 16:25:43;;;;;;;4.68;1.65;;;;;;;;;;6069370;29;20301;-71
2023/12/19 16:28:48;;;;;;;2.75;1.50;;;;;;;;;;6069542;29;20302;-71
2023/12/19 16:31:53;;;;;;;5.93;1.33;;;;;;;;;;6068820;29;20353;-70
2023/12/19 16:34:59;;;;;;;11.00;1.55;;;;;;;;;;6082583;29;20289;-69
2023/12/19 16:38:04;;;;;;;12.40;1.88;;;;;;;;;;6068832;29;20458;-69
2023/12/19 16:41:09;;;;;;;4.97;1.70;;;;;;;;;;6069192;29;20289;-71
2023/12/19 16:44:13;;;;;;;7.35;1.70;;;;;;;;;;6068822;29;20302;-71
2023/12/19 16:47:17;;;;;;;4.50;1.58;;;;;;;;;;6067579;29;20293;-71
2023/12/19 16:50:23;;;;;;;4.40;1.30;;;;;;;;;;6069021;29;20316;-71
2023/12/19 16:53:28;;;;;;;7.63;1.90;;;;;;;;;;6048310;29;20305;-71
2023/12/19 16:56:32;;;;;;;5.53;1.57;;;;;;;;;;6046060;29;20293;-71
2023/12/19 16:59:38;;;;;;;11.88;1.65;;;;;;;;;;6044900;29;20305;-72
2023/12/19 17:02:42;;;;;;;7.00;2.00;;;;;;;;;;6049669;29;20301;-70
2023/12/19 17:05:52;;;;;;;11.15;2.38;;;;;;;;;;6045267;29;20297;-71
2023/12/19 17:08:56;;;;;;;8.35;1.55;;;;;;;;;;6045226;29;20301;-71
2023/12/19 17:12:02;;;;;;;8.43;2.00;;;;;;;;;;6063574;29;20455;-70
2023/12/19 17:15:07;;;;;;;7.05;1.60;;;;;;;;;;6068271;29;20313;-70
2023/12/19 17:18:12;;;;;;;7.90;1.92;;;;;;;;;;6067237;29;20320;-70
2023/12/19 17:21:17;;;;;;;7.65;1.70;;;;;;;;;;6067668;29;20297;-71
2023/12/19 17:24:21;;;;;;;8.50;1.93;;;;;;;;;;6067836;29;20301;-70
2023/12/19 17:27:38;;;;;;;8.40;1.87;;;;;;;;;;6065063;29;20302;-70
2023/12/19 17:30:43;;;;;;;5.77;1.90;;;;;;;;;;6072991;29;20288;-71
2023/12/19 17:33:49;;;;;;;11.30;1.83;;;;;;;;;;6067855;29;20289;-71
2023/12/19 17:36:54;;;;;;;5.20;1.80;;;;;;;;;;6068231;29;20284;-70
2023/12/19 17:39:59;;;;;;;7.43;2.00;;;;;;;;;;6059552;29;20297;-71
2023/12/19 17:43:03;;;;;;;5.93;1.60;;;;;;;;;;6067255;29;20297;-71
2023/12/19 17:46:07;;;;;;;6.93;1.92;;;;;;;;;;6067985;29;20305;-70
2023/12/19 17:49:11;;;;;;;10.38;2.10;;;;;;;;;;6072255;29;20300;-70
2023/12/19 17:52:17;;;;;;;8.30;1.70;;;;;;;;;;6067521;29;20613;-70
2023/12/19 17:55:21;;;;;;;5.13;1.87;;;;;;;;;;6067126;29;20600;-71
2023/12/19 17:58:25;;;;;;;5.23;1.80;;;;;;;;;;6067249;29;20293;-71
2023/12/19 18:01:29;;;;;;;10.20;1.80;;;;;;;;;;6067483;29;20296;-70
2023/12/19 18:04:34;;;;;;;11.30;2.20;;;;;;;;;;6067344;29;20301;-71
2023/12/19 18:07:42;;;;;;;11.43;1.73;;;;;;;;;;6067461;29;20297;-71
2023/12/19 18:10:46;;;;;;;8.87;1.97;;;;;;;;;;6058359;29;20331;-71
2023/12/19 18:13:49;;;;;;;8.17;2.00;;;;;;;;;;6043993;29;20305;-72
2023/12/19 18:16:54;;;;;;;4.90;2.10;;;;;;;;;;6049811;29;20313;-71
2023/12/19 18:19:58;;;;;;;14.40;2.10;;;;;;;;;;6065425;29;20292;-71
2023/12/19 18:23:04;;;;;;;7.23;2.00;;;;;;;;;;6066116;29;20313;-71
2023/12/19 18:26:08;;;;;;;8.07;2.13;;;;;;;;;;6067431;29;20313;-71
2023/12/19 18:29:13;;;;;;;8.80;2.17;;;;;;;;;;6081005;29;20464;-71
2023/12/19 18:32:17;;;;;;;9.17;1.83;;;;;;;;;;6068276;29;20381;-71
2023/12/19 18:35:22;;;;;;;6.40;2.10;;;;;;;;;;6071902;29;20308;-70
2023/12/19 18:38:28;;;;;;;7.17;2.03;;;;;;;;;;6070985;29;20300;-71